sensor_id;sensor_type;location;lat;lon;timestamp;pressure;altitude;pressure_sealevel;temperature
20289;BMP180;10303;51.960;8.372;2022-07-23T00:00:32;100754.00;;;19.10
20289;BMP180;10303;51.960;8.372;2022-07-23T00:02:58;100755.00;;;19.10
20289;BMP180;10303;51.960;8.372;2022-07-23T00:05:24;100743.00;;;19.10
20289;BMP180;10303;51.960;8.372;2022-07-23T00:07:50;100735.00;;;19.10
20289;BMP180;10303;51.960;8.372;2022-07-23T00:10:16;100725.00;;;19.10
20289;BMP180;10303;51.960;8.372;2022-07-23T00:12:42;100720.00;;;19.10
20289;BMP180;10303;51.960;8.372;2022-07-23T00:15:08;100727.00;;;19.00
20289;BMP180;10303;51.960;8.372;2022-07-23T00:17:35;100731.00;;;19.10
20289;BMP180;10303;51.960;8.372;2022-07-23T00:20:01;100732.00;;;19.00
20289;BMP180;10303;51.960;8.372;2022-07-23T00:22:27;100738.00;;;19.00
20289;BMP180;10303;51.960;8.372;2022-07-23T00:24:56;100744.00;;;19.00
20289;BMP180;10303;51.960;8.372;2022-07-23T00:27:22;100746.00;;;19.10
20289;BMP180;10303;51.960;8.372;2022-07-23T00:29:48;100746.00;;;19.00
20289;BMP180;10303;51.960;8.372;2022-07-23T00:32:15;100758.00;;;19.00
20289;BMP180;10303;51.960;8.372;2022-07-23T00:34:42;100767.00;;;19.10
20289;BMP180;10303;51.960;8.372;2022-07-23T00:37:08;100761.00;;;19.00
20289;BMP180;10303;51.960;8.372;2022-07-23T00:39:35;100766.00;;;19.00
20289;BMP180;10303;51.960;8.372;2022-07-23T00:42:01;100778.00;;;19.00
20289;BMP180;10303;51.960;8.372;2022-07-23T00:44:28;100785.00;;;19.00
20289;BMP180;10303;51.960;8.372;2022-07-23T00:46:57;100787.00;;;19.00
20289;BMP180;10303;51.960;8.372;2022-07-23T00:49:27;100792.00;;;19.00
20289;BMP180;10303;51.960;8.372;2022-07-23T00:51:54;100790.00;;;19.00
20289;BMP180;10303;51.960;8.372;2022-07-23T00:54:24;100791.00;;;19.00
20289;BMP180;10303;51.960;8.372;2022-07-23T00:56:51;100789.00;;;19.00
20289;BMP180;10303;51.960;8.372;2022-07-23T00:59:17;100779.00;;;19.10
20289;BMP180;10303;51.960;8.372;2022-07-23T01:01:43;100786.00;;;19.10
20289;BMP180;10303;51.960;8.372;2022-07-23T01:04:16;100783.00;;;19.10
20289;BMP180;10303;51.960;8.372;2022-07-23T01:06:43;100785.00;;;19.10
20289;BMP180;10303;51.960;8.372;2022-07-23T01:09:11;100781.00;;;19.10
20289;BMP180;10303;51.960;8.372;2022-07-23T01:11:38;100770.00;;;19.10
20289;BMP180;10303;51.960;8.372;2022-07-23T01:14:12;100768.00;;;19.10
20289;BMP180;10303;51.960;8.372;2022-07-23T01:16:39;100766.00;;;19.10
20289;BMP180;10303;51.960;8.372;2022-07-23T01:19:05;100764.00;;;19.10
20289;BMP180;10303;51.960;8.372;2022-07-23T01:21:37;100759.00;;;19.10
20289;BMP180;10303;51.960;8.372;2022-07-23T01:24:05;100752.00;;;19.10
20289;BMP180;10303;51.960;8.372;2022-07-23T01:26:32;100750.00;;;19.10
20289;BMP180;10303;51.960;8.372;2022-07-23T01:28:59;100743.00;;;19.10
20289;BMP180;10303;51.960;8.372;2022-07-23T01:31:26;100744.00;;;19.10
20289;BMP180;10303;51.960;8.372;2022-07-23T01:33:52;100742.00;;;19.10
20289;BMP180;10303;51.960;8.372;2022-07-23T01:36:19;100739.00;;;19.10
20289;BMP180;10303;51.960;8.372;2022-07-23T01:38:45;100726.00;;;19.10
20289;BMP180;10303;51.960;8.372;2022-07-23T01:41:11;100723.00;;;19.10
20289;BMP180;10303;51.960;8.372;2022-07-23T01:43:37;100712.00;;;19.10
20289;BMP180;10303;51.960;8.372;2022-07-23T01:46:03;100703.00;;;19.10
20289;BMP180;10303;51.960;8.372;2022-07-23T01:48:36;100695.00;;;19.10
20289;BMP180;10303;51.960;8.372;2022-07-23T01:51:37;100706.00;;;19.10
20289;BMP180;10303;51.960;8.372;2022-07-23T01:54:23;100707.00;;;19.10
20289;BMP180;10303;51.960;8.372;2022-07-23T01:56:49;100705.00;;;19.00
20289;BMP180;10303;51.960;8.372;2022-07-23T01:59:15;100704.00;;;19.10
20289;BMP180;10303;51.960;8.372;2022-07-23T02:01:41;100691.00;;;19.10
20289;BMP180;10303;51.960;8.372;2022-07-23T02:04:07;100687.00;;;19.00
20289;BMP180;10303;51.960;8.372;2022-07-23T02:06:33;100695.00;;;19.00
20289;BMP180;10303;51.960;8.372;2022-07-23T02:08:59;100701.00;;;19.00
20289;BMP180;10303;51.960;8.372;2022-07-23T02:11:25;100697.00;;;19.00
20289;BMP180;10303;51.960;8.372;2022-07-23T02:13:53;100690.00;;;19.00
20289;BMP180;10303;51.960;8.372;2022-07-23T02:16:21;100698.00;;;19.00
20289;BMP180;10303;51.960;8.372;2022-07-23T02:18:46;100702.00;;;19.00
20289;BMP180;10303;51.960;8.372;2022-07-23T02:21:13;100705.00;;;19.00
20289;BMP180;10303;51.960;8.372;2022-07-23T02:23:39;100710.00;;;19.00
20289;BMP180;10303;51.960;8.372;2022-07-23T02:26:06;100713.00;;;19.00
20289;BMP180;10303;51.960;8.372;2022-07-23T02:28:32;100717.00;;;18.90
20289;BMP180;10303;51.960;8.372;2022-07-23T02:30:58;100715.00;;;18.90
20289;BMP180;10303;51.960;8.372;2022-07-23T02:33:24;100701.00;;;18.90
20289;BMP180;10303;51.960;8.372;2022-07-23T02:35:50;100695.00;;;18.90
20289;BMP180;10303;51.960;8.372;2022-07-23T02:38:18;100700.00;;;18.90
20289;BMP180;10303;51.960;8.372;2022-07-23T02:40:45;100710.00;;;18.90
20289;BMP180;10303;51.960;8.372;2022-07-23T02:43:11;100720.00;;;18.90
20289;BMP180;10303;51.960;8.372;2022-07-23T02:45:38;100715.00;;;18.90
20289;BMP180;10303;51.960;8.372;2022-07-23T02:48:04;100718.00;;;18.90
20289;BMP180;10303;51.960;8.372;2022-07-23T02:50:30;100713.00;;;18.90
20289;BMP180;10303;51.960;8.372;2022-07-23T02:52:58;100715.00;;;18.90
20289;BMP180;10303;51.960;8.372;2022-07-23T02:55:24;100710.00;;;18.90
20289;BMP180;10303;51.960;8.372;2022-07-23T02:57:52;100703.00;;;18.90
20289;BMP180;10303;51.960;8.372;2022-07-23T03:00:18;100704.00;;;18.90
20289;BMP180;10303;51.960;8.372;2022-07-23T03:02:44;100700.00;;;18.90
20289;BMP180;10303;51.960;8.372;2022-07-23T03:05:10;100701.00;;;18.90
20289;BMP180;10303;51.960;8.372;2022-07-23T03:07:37;100700.00;;;18.80
20289;BMP180;10303;51.960;8.372;2022-07-23T03:10:04;100689.00;;;18.80
20289;BMP180;10303;51.960;8.372;2022-07-23T03:12:30;100706.00;;;18.80
20289;BMP180;10303;51.960;8.372;2022-07-23T03:14:56;100705.00;;;18.80
20289;BMP180;10303;51.960;8.372;2022-07-23T03:17:22;100705.00;;;18.80
20289;BMP180;10303;51.960;8.372;2022-07-23T03:19:48;100712.00;;;18.80
20289;BMP180;10303;51.960;8.372;2022-07-23T03:22:14;100712.00;;;18.70
20289;BMP180;10303;51.960;8.372;2022-07-23T03:24:40;100710.00;;;18.70
20289;BMP180;10303;51.960;8.372;2022-07-23T03:27:27;100711.00;;;18.70
20289;BMP180;10303;51.960;8.372;2022-07-23T03:29:57;100703.00;;;18.70
20289;BMP180;10303;51.960;8.372;2022-07-23T03:32:24;100699.00;;;18.70
20289;BMP180;10303;51.960;8.372;2022-07-23T03:34:51;100706.00;;;18.70
20289;BMP180;10303;51.960;8.372;2022-07-23T03:37:18;100711.00;;;18.70
20289;BMP180;10303;51.960;8.372;2022-07-23T03:39:45;100703.00;;;18.60
20289;BMP180;10303;51.960;8.372;2022-07-23T03:42:12;100705.00;;;18.60
20289;BMP180;10303;51.960;8.372;2022-07-23T03:44:38;100705.00;;;18.60
20289;BMP180;10303;51.960;8.372;2022-07-23T03:47:05;100717.00;;;18.60
20289;BMP180;10303;51.960;8.372;2022-07-23T03:49:32;100702.00;;;18.60
20289;BMP180;10303;51.960;8.372;2022-07-23T03:51:59;100707.00;;;18.60
20289;BMP180;10303;51.960;8.372;2022-07-23T03:54:26;100705.00;;;18.50
20289;BMP180;10303;51.960;8.372;2022-07-23T03:56:52;100691.00;;;18.50
20289;BMP180;10303;51.960;8.372;2022-07-23T03:59:18;100691.00;;;18.50
20289;BMP180;10303;51.960;8.372;2022-07-23T04:01:44;100694.00;;;18.40
20289;BMP180;10303;51.960;8.372;2022-07-23T04:04:11;100692.00;;;18.40
20289;BMP180;10303;51.960;8.372;2022-07-23T04:06:39;100700.00;;;18.40
20289;BMP180;10303;51.960;8.372;2022-07-23T04:09:05;100700.00;;;18.40
20289;BMP180;10303;51.960;8.372;2022-07-23T04:11:32;100703.00;;;18.40
20289;BMP180;10303;51.960;8.372;2022-07-23T04:13:58;100712.00;;;18.30
20289;BMP180;10303;51.960;8.372;2022-07-23T04:16:24;100709.00;;;18.30
20289;BMP180;10303;51.960;8.372;2022-07-23T04:18:50;100706.00;;;18.30
20289;BMP180;10303;51.960;8.372;2022-07-23T04:21:20;100711.00;;;18.30
20289;BMP180;10303;51.960;8.372;2022-07-23T04:23:46;100707.00;;;18.30
20289;BMP180;10303;51.960;8.372;2022-07-23T04:26:13;100709.00;;;18.20
20289;BMP180;10303;51.960;8.372;2022-07-23T04:28:39;100709.00;;;18.20
20289;BMP180;10303;51.960;8.372;2022-07-23T04:31:05;100711.00;;;18.20
20289;BMP180;10303;51.960;8.372;2022-07-23T04:33:33;100708.00;;;18.20
20289;BMP180;10303;51.960;8.372;2022-07-23T04:36:04;100703.00;;;18.20
20289;BMP180;10303;51.960;8.372;2022-07-23T04:38:30;100694.00;;;18.10
20289;BMP180;10303;51.960;8.372;2022-07-23T04:41:00;100709.00;;;18.10
20289;BMP180;10303;51.960;8.372;2022-07-23T04:43:26;100707.00;;;18.10
20289;BMP180;10303;51.960;8.372;2022-07-23T04:45:54;100716.00;;;18.10
20289;BMP180;10303;51.960;8.372;2022-07-23T04:48:20;100722.00;;;18.10
20289;BMP180;10303;51.960;8.372;2022-07-23T04:50:48;100729.00;;;18.10
20289;BMP180;10303;51.960;8.372;2022-07-23T04:53:17;100710.00;;;18.10
20289;BMP180;10303;51.960;8.372;2022-07-23T04:55:44;100718.00;;;18.10
20289;BMP180;10303;51.960;8.372;2022-07-23T04:58:10;100726.00;;;18.10
20289;BMP180;10303;51.960;8.372;2022-07-23T05:00:36;100718.00;;;18.10
20289;BMP180;10303;51.960;8.372;2022-07-23T05:03:02;100730.00;;;18.10
20289;BMP180;10303;51.960;8.372;2022-07-23T05:05:28;100731.00;;;18.10
20289;BMP180;10303;51.960;8.372;2022-07-23T05:08:04;100734.00;;;18.20
20289;BMP180;10303;51.960;8.372;2022-07-23T05:10:31;100727.00;;;18.20
20289;BMP180;10303;51.960;8.372;2022-07-23T05:12:57;100735.00;;;18.20
20289;BMP180;10303;51.960;8.372;2022-07-23T05:15:23;100737.00;;;18.30
20289;BMP180;10303;51.960;8.372;2022-07-23T05:17:49;100734.00;;;18.30
20289;BMP180;10303;51.960;8.372;2022-07-23T05:20:17;100721.00;;;18.30
20289;BMP180;10303;51.960;8.372;2022-07-23T05:22:43;100724.00;;;18.40
20289;BMP180;10303;51.960;8.372;2022-07-23T05:25:09;100718.00;;;18.40
20289;BMP180;10303;51.960;8.372;2022-07-23T05:27:35;100716.00;;;18.40
20289;BMP180;10303;51.960;8.372;2022-07-23T05:30:01;100718.00;;;18.50
20289;BMP180;10303;51.960;8.372;2022-07-23T05:32:32;100720.00;;;18.50
20289;BMP180;10303;51.960;8.372;2022-07-23T05:35:07;100726.00;;;18.60
20289;BMP180;10303;51.960;8.372;2022-07-23T05:37:37;100726.00;;;18.60
20289;BMP180;10303;51.960;8.372;2022-07-23T05:40:08;100728.00;;;18.60
20289;BMP180;10303;51.960;8.372;2022-07-23T05:42:40;100734.00;;;18.60
20289;BMP180;10303;51.960;8.372;2022-07-23T05:45:07;100736.00;;;18.70
20289;BMP180;10303;51.960;8.372;2022-07-23T05:47:55;100744.00;;;18.70
20289;BMP180;10303;51.960;8.372;2022-07-23T05:50:27;100740.00;;;18.80
20289;BMP180;10303;51.960;8.372;2022-07-23T05:53:00;100743.00;;;18.80
20289;BMP180;10303;51.960;8.372;2022-07-23T05:55:49;100747.00;;;18.90
20289;BMP180;10303;51.960;8.372;2022-07-23T05:58:15;100748.00;;;18.90
20289;BMP180;10303;51.960;8.372;2022-07-23T06:00:41;100745.00;;;19.00
20289;BMP180;10303;51.960;8.372;2022-07-23T06:03:07;100751.00;;;19.00
20289;BMP180;10303;51.960;8.372;2022-07-23T06:05:33;100758.00;;;19.10
20289;BMP180;10303;51.960;8.372;2022-07-23T06:07:58;100762.00;;;19.10
20289;BMP180;10303;51.960;8.372;2022-07-23T06:10:26;100764.00;;;19.20
20289;BMP180;10303;51.960;8.372;2022-07-23T06:12:51;100757.00;;;19.20
20289;BMP180;10303;51.960;8.372;2022-07-23T06:15:18;100760.00;;;19.30
20289;BMP180;10303;51.960;8.372;2022-07-23T06:17:44;100771.00;;;19.30
20289;BMP180;10303;51.960;8.372;2022-07-23T06:20:10;100767.00;;;19.40
20289;BMP180;10303;51.960;8.372;2022-07-23T06:22:38;100768.00;;;19.40
20289;BMP180;10303;51.960;8.372;2022-07-23T06:25:05;100766.00;;;19.50
20289;BMP180;10303;51.960;8.372;2022-07-23T06:27:32;100770.00;;;19.50
20289;BMP180;10303;51.960;8.372;2022-07-23T06:29:58;100769.00;;;19.60
20289;BMP180;10303;51.960;8.372;2022-07-23T06:32:24;100776.00;;;19.60
20289;BMP180;10303;51.960;8.372;2022-07-23T06:34:50;100772.00;;;19.70
20289;BMP180;10303;51.960;8.372;2022-07-23T06:37:16;100778.00;;;19.70
20289;BMP180;10303;51.960;8.372;2022-07-23T06:39:42;100780.00;;;19.80
20289;BMP180;10303;51.960;8.372;2022-07-23T06:42:08;100783.00;;;19.80
20289;BMP180;10303;51.960;8.372;2022-07-23T06:44:38;100783.00;;;19.80
20289;BMP180;10303;51.960;8.372;2022-07-23T06:47:07;100783.00;;;19.90
20289;BMP180;10303;51.960;8.372;2022-07-23T06:49:33;100782.00;;;19.90
20289;BMP180;10303;51.960;8.372;2022-07-23T06:51:59;100791.00;;;19.90
20289;BMP180;10303;51.960;8.372;2022-07-23T06:54:25;100788.00;;;20.00
20289;BMP180;10303;51.960;8.372;2022-07-23T06:56:51;100794.00;;;20.00
20289;BMP180;10303;51.960;8.372;2022-07-23T06:59:17;100790.00;;;20.00
20289;BMP180;10303;51.960;8.372;2022-07-23T07:01:43;100786.00;;;20.10
20289;BMP180;10303;51.960;8.372;2022-07-23T07:04:09;100790.00;;;20.10
20289;BMP180;10303;51.960;8.372;2022-07-23T07:06:35;100791.00;;;20.10
20289;BMP180;10303;51.960;8.372;2022-07-23T07:09:01;100796.00;;;20.20
20289;BMP180;10303;51.960;8.372;2022-07-23T07:11:26;100803.00;;;20.20
20289;BMP180;10303;51.960;8.372;2022-07-23T07:13:52;100797.00;;;20.30
20289;BMP180;10303;51.960;8.372;2022-07-23T07:16:18;100797.00;;;20.30
20289;BMP180;10303;51.960;8.372;2022-07-23T07:18:44;100790.00;;;20.30
20289;BMP180;10303;51.960;8.372;2022-07-23T07:21:11;100796.00;;;20.40
20289;BMP180;10303;51.960;8.372;2022-07-23T07:23:37;100802.00;;;20.40
20289;BMP180;10303;51.960;8.372;2022-07-23T07:26:03;100800.00;;;20.50
20289;BMP180;10303;51.960;8.372;2022-07-23T07:28:29;100806.00;;;20.60
20289;BMP180;10303;51.960;8.372;2022-07-23T07:30:55;100801.00;;;20.60
20289;BMP180;10303;51.960;8.372;2022-07-23T07:33:21;100806.00;;;20.70
20289;BMP180;10303;51.960;8.372;2022-07-23T07:35:47;100810.00;;;20.80
20289;BMP180;10303;51.960;8.372;2022-07-23T07:38:13;100817.00;;;20.90
20289;BMP180;10303;51.960;8.372;2022-07-23T07:40:39;100817.00;;;21.00
20289;BMP180;10303;51.960;8.372;2022-07-23T07:43:05;100821.00;;;21.10
20289;BMP180;10303;51.960;8.372;2022-07-23T07:45:31;100829.00;;;21.10
20289;BMP180;10303;51.960;8.372;2022-07-23T07:47:58;100827.00;;;21.10
20289;BMP180;10303;51.960;8.372;2022-07-23T07:50:24;100825.00;;;21.20
20289;BMP180;10303;51.960;8.372;2022-07-23T07:52:50;100831.00;;;21.20
20289;BMP180;10303;51.960;8.372;2022-07-23T07:55:16;100828.00;;;21.20
20289;BMP180;10303;51.960;8.372;2022-07-23T07:57:42;100828.00;;;21.30
20289;BMP180;10303;51.960;8.372;2022-07-23T08:00:10;100830.00;;;21.30
20289;BMP180;10303;51.960;8.372;2022-07-23T08:02:44;100830.00;;;21.40
20289;BMP180;10303;51.960;8.372;2022-07-23T08:05:11;100832.00;;;21.50
20289;BMP180;10303;51.960;8.372;2022-07-23T08:07:38;100831.00;;;21.60
20289;BMP180;10303;51.960;8.372;2022-07-23T08:10:08;100839.00;;;21.70
20289;BMP180;10303;51.960;8.372;2022-07-23T08:12:46;100834.00;;;21.80
20289;BMP180;10303;51.960;8.372;2022-07-23T08:15:15;100837.00;;;21.90
20289;BMP180;10303;51.960;8.372;2022-07-23T08:17:43;100846.00;;;22.10
20289;BMP180;10303;51.960;8.372;2022-07-23T08:20:12;100851.00;;;22.20
20289;BMP180;10303;51.960;8.372;2022-07-23T08:25:20;100857.00;;;22.30
20289;BMP180;10303;51.960;8.372;2022-07-23T08:27:47;100854.00;;;22.40
20289;BMP180;10303;51.960;8.372;2022-07-23T08:30:13;100859.00;;;22.60
20289;BMP180;10303;51.960;8.372;2022-07-23T08:35:27;100853.00;;;22.90
20289;BMP180;10303;51.960;8.372;2022-07-23T08:37:54;100852.00;;;23.10
20289;BMP180;10303;51.960;8.372;2022-07-23T08:40:21;100856.00;;;23.20
20289;BMP180;10303;51.960;8.372;2022-07-23T08:42:49;100865.00;;;23.20
20289;BMP180;10303;51.960;8.372;2022-07-23T08:45:20;100862.00;;;23.20
20289;BMP180;10303;51.960;8.372;2022-07-23T08:47:51;100863.00;;;23.20
20289;BMP180;10303;51.960;8.372;2022-07-23T08:50:17;100861.00;;;23.30
20289;BMP180;10303;51.960;8.372;2022-07-23T08:52:43;100858.00;;;23.50
20289;BMP180;10303;51.960;8.372;2022-07-23T08:55:10;100854.00;;;23.70
20289;BMP180;10303;51.960;8.372;2022-07-23T08:57:35;100854.00;;;23.90
20289;BMP180;10303;51.960;8.372;2022-07-23T09:00:04;100862.00;;;24.00
20289;BMP180;10303;51.960;8.372;2022-07-23T09:02:40;100857.00;;;24.10
20289;BMP180;10303;51.960;8.372;2022-07-23T09:05:07;100862.00;;;24.10
20289;BMP180;10303;51.960;8.372;2022-07-23T09:07:34;100868.00;;;24.20
20289;BMP180;10303;51.960;8.372;2022-07-23T09:10:09;100862.00;;;24.30
20289;BMP180;10303;51.960;8.372;2022-07-23T09:12:37;100864.00;;;24.50
20289;BMP180;10303;51.960;8.372;2022-07-23T09:15:07;100872.00;;;24.60
20289;BMP180;10303;51.960;8.372;2022-07-23T09:17:42;100871.00;;;24.70
20289;BMP180;10303;51.960;8.372;2022-07-23T09:20:17;100862.00;;;24.80
20289;BMP180;10303;51.960;8.372;2022-07-23T09:22:47;100861.00;;;24.90
20289;BMP180;10303;51.960;8.372;2022-07-23T09:25:17;100869.00;;;25.00
20289;BMP180;10303;51.960;8.372;2022-07-23T09:27:54;100866.00;;;25.00
20289;BMP180;10303;51.960;8.372;2022-07-23T09:30:24;100870.00;;;25.10
20289;BMP180;10303;51.960;8.372;2022-07-23T09:33:17;100862.00;;;25.00
20289;BMP180;10303;51.960;8.372;2022-07-23T09:35:49;100863.00;;;24.90
20289;BMP180;10303;51.960;8.372;2022-07-23T09:38:17;100879.00;;;24.90
20289;BMP180;10303;51.960;8.372;2022-07-23T09:40:44;100865.00;;;24.90
20289;BMP180;10303;51.960;8.372;2022-07-23T09:43:11;100868.00;;;25.00
20289;BMP180;10303;51.960;8.372;2022-07-23T09:45:37;100875.00;;;25.10
20289;BMP180;10303;51.960;8.372;2022-07-23T09:48:15;100875.00;;;25.10
20289;BMP180;10303;51.960;8.372;2022-07-23T09:50:43;100879.00;;;25.10
20289;BMP180;10303;51.960;8.372;2022-07-23T09:53:24;100885.00;;;25.10
20289;BMP180;10303;51.960;8.372;2022-07-23T09:55:54;100881.00;;;25.20
20289;BMP180;10303;51.960;8.372;2022-07-23T09:58:26;100878.00;;;25.20
20289;BMP180;10303;51.960;8.372;2022-07-23T10:00:53;100877.00;;;25.30
20289;BMP180;10303;51.960;8.372;2022-07-23T10:03:20;100874.00;;;25.30
20289;BMP180;10303;51.960;8.372;2022-07-23T10:06:10;100878.00;;;25.20
20289;BMP180;10303;51.960;8.372;2022-07-23T10:09:10;100873.00;;;25.30
20289;BMP180;10303;51.960;8.372;2022-07-23T10:12:14;100878.00;;;25.50
20289;BMP180;10303;51.960;8.372;2022-07-23T10:14:59;100887.00;;;25.70
20289;BMP180;10303;51.960;8.372;2022-07-23T10:17:28;100890.00;;;25.80
20289;BMP180;10303;51.960;8.372;2022-07-23T10:19:54;100889.00;;;25.90
20289;BMP180;10303;51.960;8.372;2022-07-23T10:22:37;100892.00;;;25.90
20289;BMP180;10303;51.960;8.372;2022-07-23T10:25:22;100882.00;;;25.80
20289;BMP180;10303;51.960;8.372;2022-07-23T10:28:21;100874.00;;;25.80
20289;BMP180;10303;51.960;8.372;2022-07-23T10:33:39;100881.00;;;26.30
20289;BMP180;10303;51.960;8.372;2022-07-23T10:36:49;100880.00;;;26.60
20289;BMP180;10303;51.960;8.372;2022-07-23T10:39:19;100886.00;;;27.00
20289;BMP180;10303;51.960;8.372;2022-07-23T10:41:47;100878.00;;;27.30
20289;BMP180;10303;51.960;8.372;2022-07-23T10:44:21;100878.00;;;27.40
20289;BMP180;10303;51.960;8.372;2022-07-23T10:49:36;100877.00;;;27.60
20289;BMP180;10303;51.960;8.372;2022-07-23T10:54:55;100882.00;;;27.80
20289;BMP180;10303;51.960;8.372;2022-07-23T10:57:28;100880.00;;;28.00
20289;BMP180;10303;51.960;8.372;2022-07-23T11:02:36;100887.00;;;28.10
20289;BMP180;10303;51.960;8.372;2022-07-23T11:05:43;100881.00;;;27.90
20289;BMP180;10303;51.960;8.372;2022-07-23T11:08:16;100876.00;;;27.80
20289;BMP180;10303;51.960;8.372;2022-07-23T11:10:56;100874.00;;;27.80
20289;BMP180;10303;51.960;8.372;2022-07-23T11:16:20;100876.00;;;28.10
20289;BMP180;10303;51.960;8.372;2022-07-23T11:18:56;100870.00;;;28.20
20289;BMP180;10303;51.960;8.372;2022-07-23T11:24:00;100879.00;;;28.20
20289;BMP180;10303;51.960;8.372;2022-07-23T11:26:50;100872.00;;;28.40
20289;BMP180;10303;51.960;8.372;2022-07-23T11:31:55;100884.00;;;28.60
20289;BMP180;10303;51.960;8.372;2022-07-23T11:37:08;100874.00;;;28.70
20289;BMP180;10303;51.960;8.372;2022-07-23T11:39:35;100880.00;;;28.80
20289;BMP180;10303;51.960;8.372;2022-07-23T11:42:03;100880.00;;;29.00
20289;BMP180;10303;51.960;8.372;2022-07-23T11:44:35;100871.00;;;29.20
20289;BMP180;10303;51.960;8.372;2022-07-23T11:47:08;100878.00;;;29.40
20289;BMP180;10303;51.960;8.372;2022-07-23T11:49:36;100878.00;;;29.60
20289;BMP180;10303;51.960;8.372;2022-07-23T11:55:05;100876.00;;;29.60
20289;BMP180;10303;51.960;8.372;2022-07-23T11:57:41;100886.00;;;29.80
20289;BMP180;10303;51.960;8.372;2022-07-23T12:00:20;100878.00;;;29.90
20289;BMP180;10303;51.960;8.372;2022-07-23T12:02:50;100879.00;;;30.00
20289;BMP180;10303;51.960;8.372;2022-07-23T12:05:23;100888.00;;;30.10
20289;BMP180;10303;51.960;8.372;2022-07-23T12:07:52;100878.00;;;30.20
20289;BMP180;10303;51.960;8.372;2022-07-23T12:10:35;100879.00;;;30.30
20289;BMP180;10303;51.960;8.372;2022-07-23T12:13:08;100876.00;;;30.50
20289;BMP180;10303;51.960;8.372;2022-07-23T12:15:46;100879.00;;;30.60
20289;BMP180;10303;51.960;8.372;2022-07-23T12:18:18;100880.00;;;30.70
20289;BMP180;10303;51.960;8.372;2022-07-23T12:21:03;100880.00;;;30.70
20289;BMP180;10303;51.960;8.372;2022-07-23T12:23:29;100879.00;;;30.70
20289;BMP180;10303;51.960;8.372;2022-07-23T12:26:02;100880.00;;;30.70
20289;BMP180;10303;51.960;8.372;2022-07-23T12:28:31;100873.00;;;30.70
20289;BMP180;10303;51.960;8.372;2022-07-23T12:31:03;100877.00;;;30.80
20289;BMP180;10303;51.960;8.372;2022-07-23T12:33:37;100877.00;;;30.80
20289;BMP180;10303;51.960;8.372;2022-07-23T12:36:08;100871.00;;;30.80
20289;BMP180;10303;51.960;8.372;2022-07-23T12:38:48;100877.00;;;30.80
20289;BMP180;10303;51.960;8.372;2022-07-23T12:41:16;100874.00;;;30.80
20289;BMP180;10303;51.960;8.372;2022-07-23T12:43:45;100876.00;;;30.80
20289;BMP180;10303;51.960;8.372;2022-07-23T12:46:16;100882.00;;;30.90
20289;BMP180;10303;51.960;8.372;2022-07-23T12:51:21;100881.00;;;31.00
20289;BMP180;10303;51.960;8.372;2022-07-23T12:53:50;100880.00;;;30.90
20289;BMP180;10303;51.960;8.372;2022-07-23T12:56:27;100891.00;;;30.90
20289;BMP180;10303;51.960;8.372;2022-07-23T13:01:38;100878.00;;;31.00
20289;BMP180;10303;51.960;8.372;2022-07-23T13:04:22;100874.00;;;31.10
20289;BMP180;10303;51.960;8.372;2022-07-23T13:06:53;100879.00;;;31.30
20289;BMP180;10303;51.960;8.372;2022-07-23T13:09:25;100881.00;;;31.40
20289;BMP180;10303;51.960;8.372;2022-07-23T13:11:53;100879.00;;;31.40
20289;BMP180;10303;51.960;8.372;2022-07-23T13:14:20;100887.00;;;31.30
20289;BMP180;10303;51.960;8.372;2022-07-23T13:16:52;100884.00;;;31.20
20289;BMP180;10303;51.960;8.372;2022-07-23T13:19:19;100880.00;;;31.20
20289;BMP180;10303;51.960;8.372;2022-07-23T13:21:48;100873.00;;;31.30
20289;BMP180;10303;51.960;8.372;2022-07-23T13:24:13;100876.00;;;31.40
20289;BMP180;10303;51.960;8.372;2022-07-23T13:26:40;100885.00;;;31.50
20289;BMP180;10303;51.960;8.372;2022-07-23T13:29:07;100873.00;;;31.50
20289;BMP180;10303;51.960;8.372;2022-07-23T13:31:36;100880.00;;;31.60
20289;BMP180;10303;51.960;8.372;2022-07-23T13:34:03;100880.00;;;31.60
20289;BMP180;10303;51.960;8.372;2022-07-23T13:36:29;100879.00;;;31.70
20289;BMP180;10303;51.960;8.372;2022-07-23T13:38:55;100883.00;;;31.60
20289;BMP180;10303;51.960;8.372;2022-07-23T13:41:21;100894.00;;;31.60
20289;BMP180;10303;51.960;8.372;2022-07-23T13:43:47;100886.00;;;31.60
20289;BMP180;10303;51.960;8.372;2022-07-23T13:46:13;100891.00;;;31.50
20289;BMP180;10303;51.960;8.372;2022-07-23T13:48:39;100886.00;;;31.50
20289;BMP180;10303;51.960;8.372;2022-07-23T13:51:07;100882.00;;;31.40
20289;BMP180;10303;51.960;8.372;2022-07-23T13:53:33;100883.00;;;31.30
20289;BMP180;10303;51.960;8.372;2022-07-23T13:55:58;100873.00;;;31.30
20289;BMP180;10303;51.960;8.372;2022-07-23T13:58:24;100885.00;;;31.20
20289;BMP180;10303;51.960;8.372;2022-07-23T14:00:52;100881.00;;;31.10
20289;BMP180;10303;51.960;8.372;2022-07-23T14:03:21;100884.00;;;31.10
20289;BMP180;10303;51.960;8.372;2022-07-23T14:05:52;100875.00;;;31.00
20289;BMP180;10303;51.960;8.372;2022-07-23T14:08:19;100879.00;;;30.90
20289;BMP180;10303;51.960;8.372;2022-07-23T14:10:45;100884.00;;;30.80
20289;BMP180;10303;51.960;8.372;2022-07-23T14:13:10;100889.00;;;30.60
20289;BMP180;10303;51.960;8.372;2022-07-23T14:15:36;100887.00;;;30.50
20289;BMP180;10303;51.960;8.372;2022-07-23T14:18:06;100881.00;;;30.40
20289;BMP180;10303;51.960;8.372;2022-07-23T14:20:33;100878.00;;;30.30
20289;BMP180;10303;51.960;8.372;2022-07-23T14:22:59;100876.00;;;30.20
20289;BMP180;10303;51.960;8.372;2022-07-23T14:25:26;100885.00;;;30.20
20289;BMP180;10303;51.960;8.372;2022-07-23T14:27:53;100886.00;;;30.10
20289;BMP180;10303;51.960;8.372;2022-07-23T14:30:19;100895.00;;;30.00
20289;BMP180;10303;51.960;8.372;2022-07-23T14:32:45;100881.00;;;29.90
20289;BMP180;10303;51.960;8.372;2022-07-23T14:35:11;100882.00;;;29.90
20289;BMP180;10303;51.960;8.372;2022-07-23T14:37:38;100875.00;;;29.80
20289;BMP180;10303;51.960;8.372;2022-07-23T14:40:05;100870.00;;;29.70
20289;BMP180;10303;51.960;8.372;2022-07-23T14:42:31;100881.00;;;29.70